createdAt,value
2022-09-23T00:01:03.680Z,8.19
2022-09-23T00:03:31.875Z,8.12
2022-09-23T00:06:00.637Z,8.21
2022-09-23T00:08:27.498Z,7.93
2022-09-23T00:10:54.543Z,7.90
2022-09-23T00:13:21.859Z,7.97
2022-09-23T00:15:48.609Z,7.99
2022-09-23T00:18:15.378Z,7.97
2022-09-23T00:20:42.380Z,7.96
2022-09-23T00:23:09.182Z,7.89
2022-09-23T00:25:35.911Z,7.84
2022-09-23T00:28:03.453Z,7.89
2022-09-23T00:30:30.413Z,7.90
2022-09-23T00:32:57.245Z,7.99
2022-09-23T00:35:24.225Z,7.97
2022-09-23T00:37:51.037Z,8.00
2022-09-23T00:40:18.062Z,7.65
2022-09-23T00:42:49.626Z,7.73
2022-09-23T00:45:16.961Z,7.65
2022-09-23T00:48:02.989Z,7.62
2022-09-23T00:50:40.108Z,7.70
2022-09-23T00:53:09.949Z,7.66
2022-09-23T00:55:47.207Z,7.59
2022-09-23T00:58:16.392Z,7.54
2022-09-23T01:00:43.106Z,7.63
2022-09-23T01:03:10.859Z,7.56
2022-09-23T01:05:38.903Z,7.55
2022-09-23T01:08:07.581Z,7.49
2022-09-23T01:10:43.660Z,7.45
2022-09-23T01:13:24.920Z,7.37
2022-09-23T01:16:32.819Z,7.37
2022-09-23T01:19:30.021Z,7.24
2022-09-23T01:22:19.758Z,7.40
2022-09-23T01:25:27.599Z,7.47
2022-09-23T01:28:16.277Z,7.31
2022-09-23T01:30:46.385Z,7.25
2022-09-23T01:33:18.969Z,7.21
2022-09-23T01:36:01.018Z,7.26
2022-09-23T01:38:38.504Z,7.22
2022-09-23T01:41:13.787Z,7.12
2022-09-23T01:44:07.089Z,6.98
2022-09-23T01:46:42.223Z,7.12
2022-09-23T01:49:19.638Z,7.05
2022-09-23T01:52:17.326Z,6.87
2022-09-23T01:54:51.491Z,6.91
2022-09-23T01:57:29.037Z,7.01
2022-09-23T02:00:00.844Z,7.03
2022-09-23T02:02:32.636Z,7.00
2022-09-23T02:05:15.093Z,7.02
2022-09-23T02:07:46.286Z,7.06
2022-09-23T02:10:20.319Z,6.87
2022-09-23T02:12:49.977Z,6.95
2022-09-23T02:15:20.206Z,7.02
2022-09-23T02:17:54.912Z,6.97
2022-09-23T02:20:28.480Z,6.99
2022-09-23T02:23:03.979Z,6.94
2022-09-23T02:25:38.051Z,6.94
2022-09-23T02:28:26.091Z,6.90
2022-09-23T02:31:02.463Z,6.72
2022-09-23T02:33:36.659Z,6.77
2022-09-23T02:36:18.193Z,6.84
2022-09-23T02:38:47.290Z,6.87
2022-09-23T02:41:23.302Z,6.66
2022-09-23T02:43:56.655Z,6.61
2022-09-23T02:46:23.923Z,6.62
2022-09-23T02:48:53.966Z,6.69
2022-09-23T02:51:20.708Z,6.67
2022-09-23T02:53:48.104Z,6.52
2022-09-23T02:56:20.415Z,6.67
2022-09-23T02:58:48.870Z,6.63
2022-09-23T03:01:53.119Z,6.60
2022-09-23T03:04:43.011Z,6.39
2022-09-23T03:07:35.891Z,6.23
2022-09-23T03:10:26.659Z,6.30
2022-09-23T03:13:14.262Z,6.33
2022-09-23T03:15:48.806Z,6.33
2022-09-23T03:18:35.224Z,6.29
2022-09-23T03:21:06.358Z,6.40
2022-09-23T03:23:37.339Z,6.40
2022-09-23T03:26:23.729Z,6.28
2022-09-23T03:28:51.039Z,6.32
2022-09-23T03:31:18.228Z,6.25
2022-09-23T03:33:48.774Z,6.28
2022-09-23T03:36:36.750Z,6.23
2022-09-23T03:39:07.002Z,6.19
2022-09-23T03:41:39.154Z,6.14
2022-09-23T03:44:08.449Z,6.16
2022-09-23T03:46:36.348Z,6.19
2022-09-23T03:49:09.728Z,6.13
2022-09-23T03:51:36.488Z,6.04
2022-09-23T03:54:03.339Z,6.05
2022-09-23T03:56:30.045Z,6.08
2022-09-23T03:58:56.780Z,6.11
2022-09-23T04:01:23.746Z,6.08
2022-09-23T04:03:52.199Z,5.59
2022-09-23T04:06:19.527Z,5.71
2022-09-23T04:08:46.130Z,5.80
2022-09-23T04:11:12.817Z,5.71
2022-09-23T04:13:42.376Z,5.74
2022-09-23T04:16:09.116Z,5.71
2022-09-23T04:18:35.818Z,5.67
2022-09-23T04:21:02.700Z,5.76
2022-09-23T04:23:29.313Z,5.71
2022-09-23T04:25:55.984Z,5.90
2022-09-23T04:28:23.120Z,5.82
2022-09-23T04:30:49.885Z,5.77
2022-09-23T04:33:17.376Z,5.80
2022-09-23T04:35:44.121Z,5.67
2022-09-23T04:38:12.421Z,5.70
2022-09-23T04:40:39.391Z,5.66
2022-09-23T04:43:07.812Z,5.56
2022-09-23T04:45:36.672Z,5.54
2022-09-23T04:48:04.154Z,5.57
2022-09-23T04:50:34.075Z,5.65
2022-09-23T04:53:01.054Z,5.48
2022-09-23T04:55:27.895Z,5.50
2022-09-23T04:57:54.907Z,5.53
2022-09-23T05:00:23.417Z,5.51
2022-09-23T05:02:50.903Z,5.60
2022-09-23T05:05:22.523Z,5.49
2022-09-23T05:07:49.616Z,5.54
2022-09-23T05:10:16.531Z,5.46
2022-09-23T05:12:43.235Z,5.49
2022-09-23T05:15:10.040Z,5.40
2022-09-23T05:17:37.545Z,5.43
2022-09-23T05:20:04.835Z,5.48
2022-09-23T05:22:31.830Z,5.47
2022-09-23T05:25:00.464Z,5.46
2022-09-23T05:27:27.319Z,5.43
2022-09-23T05:29:54.230Z,5.47
2022-09-23T05:32:22.080Z,5.44
2022-09-23T05:34:48.954Z,5.51
2022-09-23T05:37:15.614Z,5.46
2022-09-23T05:39:42.244Z,5.47
2022-09-23T05:42:09.511Z,5.41
2022-09-23T05:44:36.193Z,5.46
2022-09-23T05:47:02.974Z,5.52
2022-09-23T05:49:48.630Z,5.47
2022-09-23T05:52:17.386Z,5.44
2022-09-23T05:54:44.158Z,5.56
2022-09-23T05:57:10.899Z,5.63
2022-09-23T05:59:38.247Z,5.72
2022-09-23T06:02:05.050Z,5.70
2022-09-23T06:04:31.862Z,5.76
2022-09-23T06:07:02.916Z,5.79
2022-09-23T06:09:35.609Z,5.80
2022-09-23T06:12:04.647Z,5.95
2022-09-23T06:14:31.267Z,5.97
2022-09-23T06:16:58.177Z,6.04
2022-09-23T06:19:25.116Z,6.09
2022-09-23T06:21:51.869Z,6.03
2022-09-23T06:24:22.117Z,6.14
2022-09-23T06:26:50.514Z,6.25
2022-09-23T06:29:18.373Z,6.35
2022-09-23T06:31:45.242Z,6.29
2022-09-23T06:34:14.413Z,6.43
2022-09-23T06:36:46.245Z,6.49
2022-09-23T06:39:14.686Z,6.60
2022-09-23T06:41:41.382Z,6.76
2022-09-23T06:44:08.248Z,6.82
2022-09-23T06:46:37.052Z,6.79
2022-09-23T06:49:03.801Z,6.90
2022-09-23T06:51:30.598Z,7.03
2022-09-23T06:53:57.285Z,7.20
2022-09-23T06:56:24.498Z,7.36
2022-09-23T06:58:52.609Z,7.52
2022-09-23T07:01:20.066Z,7.57
2022-09-23T07:03:50.291Z,7.64
2022-09-23T07:06:17.645Z,7.74
2022-09-23T07:08:47.181Z,7.81
2022-09-23T07:11:15.092Z,7.83
2022-09-23T07:13:42.847Z,8.05
2022-09-23T07:16:11.190Z,8.10
2022-09-23T07:18:38.511Z,8.28
2022-09-23T07:21:18.849Z,8.29
2022-09-23T07:23:47.665Z,8.41
2022-09-23T07:26:16.231Z,8.56
2022-09-23T07:28:43.585Z,8.57
2022-09-23T07:31:13.158Z,8.62
2022-09-23T07:33:44.450Z,8.68
2022-09-23T07:36:13.547Z,8.65
2022-09-23T07:38:45.205Z,8.67
2022-09-23T07:41:14.771Z,8.83
2022-09-23T07:43:41.622Z,8.97
2022-09-23T07:46:11.977Z,8.97
2022-09-23T07:48:39.486Z,9.05
2022-09-23T07:51:17.375Z,9.18
2022-09-23T07:53:47.689Z,9.33
2022-09-23T07:56:14.423Z,9.37
2022-09-23T07:58:41.029Z,9.53
2022-09-23T08:01:10.501Z,9.65
2022-09-23T08:03:38.002Z,9.72
2022-09-23T08:06:07.401Z,9.72
2022-09-23T08:08:35.904Z,9.94
2022-09-23T08:11:07.792Z,10.00
2022-09-23T08:13:35.141Z,10.11
2022-09-23T08:16:02.306Z,10.24
2022-09-23T08:18:29.147Z,10.39
2022-09-23T08:20:56.007Z,10.47
2022-09-23T08:23:23.358Z,10.53
2022-09-23T08:25:59.754Z,10.71
2022-09-23T08:28:27.124Z,10.85
2022-09-23T08:30:53.829Z,10.98
2022-09-23T08:33:23.381Z,11.19
2022-09-23T08:35:50.575Z,11.37
2022-09-23T08:38:17.496Z,11.47
2022-09-23T08:40:48.979Z,11.60
2022-09-23T08:43:25.925Z,11.81
2022-09-23T08:45:53.637Z,11.91
2022-09-23T08:48:36.192Z,12.05
2022-09-23T08:51:06.317Z,12.04
2022-09-23T08:53:36.328Z,12.18
2022-09-23T08:56:12.489Z,12.30
2022-09-23T08:59:33.871Z,12.55
2022-09-23T09:02:06.754Z,12.58
2022-09-23T09:04:41.436Z,12.79
2022-09-23T09:07:38.041Z,13.09
2022-09-23T09:10:11.999Z,13.26
2022-09-23T09:12:50.685Z,13.31
2022-09-23T09:15:24.856Z,13.38
2022-09-23T09:18:07.982Z,13.43
2022-09-23T09:20:57.563Z,13.63
2022-09-23T09:23:33.284Z,13.71
2022-09-23T09:26:03.196Z,13.82
2022-09-23T09:28:39.658Z,13.98
2022-09-23T09:31:33.192Z,14.26
2022-09-23T09:34:26.512Z,14.33
2022-09-23T09:37:23.929Z,14.48
2022-09-23T09:39:50.897Z,14.65
2022-09-23T09:42:35.967Z,14.55
2022-09-23T09:45:06.188Z,14.66
2022-09-23T09:47:56.887Z,14.79
2022-09-23T09:50:50.116Z,14.85
2022-09-23T09:53:27.639Z,14.95
2022-09-23T09:56:23.222Z,15.08
2022-09-23T09:58:53.800Z,15.11
2022-09-23T10:01:24.140Z,15.14
2022-09-23T10:03:55.589Z,15.26
2022-09-23T10:06:32.698Z,15.34
2022-09-23T10:09:19.519Z,15.49
2022-09-23T10:12:16.019Z,15.66
2022-09-23T10:14:43.416Z,15.73
2022-09-23T10:17:32.708Z,15.90
2022-09-23T10:20:01.734Z,15.99
2022-09-23T10:22:32.971Z,16.04
2022-09-23T10:25:07.636Z,16.15
2022-09-23T10:27:36.510Z,16.09
2022-09-23T10:30:23.779Z,16.33
2022-09-23T10:32:52.371Z,16.40
2022-09-23T10:35:24.656Z,16.44
2022-09-23T10:37:56.271Z,16.39
2022-09-23T10:41:02.409Z,16.64
2022-09-23T10:44:22.714Z,16.81
2022-09-23T10:47:35.240Z,16.99
2022-09-23T10:50:29.077Z,17.11
2022-09-23T10:53:11.949Z,17.02
2022-09-23T10:55:45.896Z,17.18
2022-09-23T10:58:20.686Z,17.26
2022-09-23T11:01:13.666Z,17.43
2022-09-23T11:04:12.425Z,17.60
2022-09-23T11:06:53.275Z,17.75
2022-09-23T11:09:20.208Z,17.85
2022-09-23T11:12:07.800Z,17.78
2022-09-23T11:15:21.212Z,17.58
2022-09-23T11:18:19.699Z,17.92
2022-09-23T11:21:01.679Z,17.97
2022-09-23T11:23:58.273Z,18.06
2022-09-23T11:26:41.954Z,18.23
2022-09-23T11:29:19.963Z,18.34
2022-09-23T11:32:28.478Z,18.51
2022-09-23T11:35:23.003Z,18.56
2022-09-23T11:38:02.214Z,18.51
2022-09-23T11:40:34.378Z,18.64
2022-09-23T11:43:07.640Z,18.75
2022-09-23T11:45:37.760Z,18.73
2022-09-23T11:48:12.221Z,18.69
2022-09-23T11:50:45.192Z,18.55
2022-09-23T11:53:23.175Z,18.66
2022-09-23T11:55:58.489Z,18.63
2022-09-23T11:58:30.240Z,18.70
2022-09-23T12:01:07.742Z,18.84
2022-09-23T12:03:55.869Z,18.91
2022-09-23T12:06:27.364Z,18.80
2022-09-23T12:08:59.529Z,18.54
2022-09-23T12:11:47.353Z,18.67
2022-09-23T12:14:40.680Z,18.66
2022-09-23T12:17:38.158Z,18.82
2022-09-23T12:20:44.292Z,18.89
2022-09-23T12:23:43.778Z,19.08
2022-09-23T12:26:18.648Z,19.03
2022-09-23T12:28:47.088Z,19.29
2022-09-23T12:31:23.378Z,19.38
2022-09-23T12:33:51.576Z,19.44
2022-09-23T12:36:26.687Z,19.46
2022-09-23T12:39:03.791Z,19.62
2022-09-23T12:41:37.978Z,19.54
2022-09-23T12:44:12.103Z,19.55
2022-09-23T12:46:40.030Z,19.55
2022-09-23T12:49:23.653Z,19.73
2022-09-23T12:52:18.743Z,19.88
2022-09-23T12:54:47.123Z,19.96
2022-09-23T12:57:50.856Z,19.83
2022-09-23T13:00:28.095Z,19.67
2022-09-23T13:03:17.446Z,19.70
2022-09-23T13:06:06.631Z,19.76
2022-09-23T13:08:36.680Z,19.82
2022-09-23T13:11:06.442Z,19.66
2022-09-23T13:13:36.567Z,19.57
2022-09-23T13:16:26.290Z,19.66
2022-09-23T13:18:57.120Z,19.74
2022-09-23T13:22:03.749Z,19.85
2022-09-23T13:24:42.578Z,19.79
2022-09-23T13:27:20.129Z,19.74
2022-09-23T13:29:52.046Z,19.62
2022-09-23T13:32:21.318Z,19.39
2022-09-23T13:34:58.287Z,19.42
2022-09-23T13:37:47.799Z,19.58
2022-09-23T13:40:27.080Z,19.73
2022-09-23T13:43:03.404Z,19.75
2022-09-23T13:45:34.381Z,19.59
2022-09-23T13:48:12.081Z,19.55
2022-09-23T13:50:41.387Z,19.27
2022-09-23T13:53:11.096Z,19.29
2022-09-23T13:55:39.408Z,19.26
2022-09-23T13:58:17.790Z,19.18
2022-09-23T14:00:45.121Z,19.26
2022-09-23T14:03:36.196Z,19.22
2022-09-23T14:06:11.769Z,19.33
2022-09-23T14:08:39.406Z,19.46
2022-09-23T14:11:06.531Z,19.36
2022-09-23T14:13:40.612Z,19.29
2022-09-23T14:16:10.436Z,19.16
2022-09-23T14:18:44.551Z,19.21
2022-09-23T14:21:37.237Z,19.22
2022-09-23T14:24:29.617Z,19.18
2022-09-23T14:27:14.236Z,19.09
2022-09-23T14:29:44.320Z,19.15
2022-09-23T14:32:18.647Z,19.26
2022-09-23T14:35:18.871Z,19.36
2022-09-23T14:38:07.078Z,19.39
2022-09-23T14:40:36.214Z,19.47
2022-09-23T14:43:24.393Z,19.28
2022-09-23T14:45:53.163Z,19.31
2022-09-23T14:48:33.590Z,19.29
2022-09-23T14:51:03.095Z,19.14
2022-09-23T14:53:41.461Z,19.06
2022-09-23T14:56:21.949Z,19.09
2022-09-23T14:58:54.670Z,19.12
2022-09-23T15:01:36.096Z,19.14
2022-09-23T15:04:16.788Z,19.05
2022-09-23T15:06:49.510Z,19.16
2022-09-23T15:09:21.121Z,19.06
2022-09-23T15:11:48.389Z,18.96
2022-09-23T15:14:36.701Z,19.00
2022-09-23T15:17:03.981Z,18.97
2022-09-23T15:19:31.771Z,18.95
2022-09-23T15:21:58.581Z,19.01
2022-09-23T15:24:40.847Z,19.00
2022-09-23T15:27:26.310Z,19.00
2022-09-23T15:29:56.244Z,18.91
2022-09-23T15:32:22.980Z,18.84
2022-09-23T15:34:50.925Z,18.80
2022-09-23T15:37:24.387Z,18.67
2022-09-23T15:39:54.426Z,18.68
2022-09-23T15:42:21.537Z,18.72
2022-09-23T15:44:49.592Z,18.66
2022-09-23T15:47:18.948Z,18.56
2022-09-23T15:49:48.663Z,18.57
2022-09-23T15:52:16.292Z,18.59
2022-09-23T15:54:44.343Z,18.62
2022-09-23T15:57:11.630Z,18.52
2022-09-23T15:59:38.381Z,18.49
2022-09-23T16:02:20.453Z,18.46
2022-09-23T16:04:50.434Z,18.46
2022-09-23T16:07:17.286Z,18.39
2022-09-23T16:09:43.961Z,18.33
2022-09-23T16:12:12.085Z,18.24
2022-09-23T16:14:38.749Z,18.16
2022-09-23T16:17:05.671Z,18.10
2022-09-23T16:19:34.406Z,18.06
2022-09-23T16:22:01.203Z,18.03
2022-09-23T16:24:28.410Z,18.00
2022-09-23T16:27:00.065Z,17.99
2022-09-23T16:29:27.782Z,17.94
2022-09-23T16:31:55.814Z,17.82
2022-09-23T16:34:22.814Z,17.66
2022-09-23T16:36:49.616Z,17.72
2022-09-23T16:39:16.324Z,17.67
2022-09-23T16:41:43.762Z,17.58
2022-09-23T16:44:12.686Z,17.50
2022-09-23T16:46:43.003Z,17.44
2022-09-23T16:49:12.242Z,17.31
2022-09-23T16:51:40.027Z,17.18
2022-09-23T16:54:10.465Z,17.16
2022-09-23T16:56:39.316Z,17.06
2022-09-23T16:59:06.253Z,17.06
2022-09-23T17:01:51.793Z,17.00
2022-09-23T17:04:19.704Z,16.88
2022-09-23T17:06:50.798Z,16.84
2022-09-23T17:09:19.083Z,16.67
2022-09-23T17:11:48.733Z,16.72
2022-09-23T17:14:16.201Z,16.51
2022-09-23T17:16:43.274Z,16.41
2022-09-23T17:19:11.811Z,16.20
2022-09-23T17:21:39.351Z,16.13
2022-09-23T17:24:06.531Z,16.16
2022-09-23T17:26:33.242Z,16.08
2022-09-23T17:29:02.175Z,16.01
2022-09-23T17:31:29.690Z,15.94
2022-09-23T17:33:56.593Z,15.88
2022-09-23T17:36:23.467Z,15.80
2022-09-23T17:38:54.065Z,15.68
2022-09-23T17:41:21.169Z,15.63
2022-09-23T17:43:48.592Z,15.60
2022-09-23T17:46:18.341Z,15.60
2022-09-23T17:48:45.485Z,15.55
2022-09-23T17:51:16.099Z,15.63
2022-09-23T17:53:45.614Z,15.39
2022-09-23T17:56:26.522Z,15.26
2022-09-23T17:58:53.913Z,15.40
2022-09-23T18:01:23.946Z,15.19
2022-09-23T18:04:00.967Z,15.21
2022-09-23T18:06:29.722Z,15.18
2022-09-23T18:08:56.540Z,15.12
2022-09-23T18:11:25.402Z,15.09
2022-09-23T18:13:57.701Z,14.86
2022-09-23T18:16:27.066Z,14.88
2022-09-23T18:18:55.603Z,14.85
2022-09-23T18:21:24.887Z,14.87
2022-09-23T18:23:51.606Z,14.81
2022-09-23T18:26:21.057Z,14.69
2022-09-23T18:28:48.487Z,14.74
2022-09-23T18:31:17.207Z,14.60
2022-09-23T18:33:48.434Z,14.61
2022-09-23T18:36:15.133Z,14.60
2022-09-23T18:38:41.956Z,14.45
2022-09-23T18:41:09.564Z,14.37
2022-09-23T18:43:41.314Z,14.48
2022-09-23T18:46:17.289Z,14.42
2022-09-23T18:49:03.195Z,14.37
2022-09-23T18:51:30.422Z,14.36
2022-09-23T18:53:58.740Z,14.32
2022-09-23T18:56:42.252Z,14.24
2022-09-23T18:59:13.089Z,14.21
2022-09-23T19:01:39.906Z,14.20
2022-09-23T19:04:07.460Z,14.15
2022-09-23T19:06:35.264Z,14.00
2022-09-23T19:09:02.328Z,14.05
2022-09-23T19:11:29.073Z,14.10
2022-09-23T19:14:02.227Z,14.02
2022-09-23T19:16:31.870Z,13.91
2022-09-23T19:19:00.076Z,13.90
2022-09-23T19:21:27.860Z,13.89
2022-09-23T19:23:56.954Z,13.93
2022-09-23T19:26:26.421Z,13.83
2022-09-23T19:28:57.335Z,13.77
2022-09-23T19:31:27.155Z,13.87
2022-09-23T19:33:56.710Z,13.85
2022-09-23T19:36:31.315Z,13.88
2022-09-23T19:39:04.114Z,13.82
2022-09-23T19:41:32.661Z,13.62
2022-09-23T19:44:03.505Z,13.60
2022-09-23T19:46:31.300Z,13.66
2022-09-23T19:48:58.914Z,13.66
2022-09-23T19:51:25.782Z,13.64
2022-09-23T19:53:52.846Z,13.47
2022-09-23T19:56:20.228Z,13.44
2022-09-23T19:58:48.744Z,13.46
2022-09-23T20:01:16.446Z,13.41
2022-09-23T20:03:47.250Z,13.42
2022-09-23T20:06:15.051Z,13.47
2022-09-23T20:08:42.373Z,13.49
2022-09-23T20:11:11.365Z,13.51
2022-09-23T20:13:42.741Z,13.54
2022-09-23T20:16:12.194Z,13.49
2022-09-23T20:18:39.317Z,13.24
2022-09-23T20:21:06.915Z,13.11
2022-09-23T20:23:34.428Z,13.09
2022-09-23T20:26:20.716Z,13.14
2022-09-23T20:28:48.075Z,13.03
2022-09-23T20:31:15.561Z,13.00
2022-09-23T20:33:42.323Z,13.14
2022-09-23T20:36:15.713Z,13.22
2022-09-23T20:38:42.434Z,13.08
2022-09-23T20:41:09.545Z,13.07
2022-09-23T20:43:36.611Z,12.86
2022-09-23T20:46:05.515Z,12.86
2022-09-23T20:48:32.416Z,12.77
2022-09-23T20:51:03.758Z,12.87
2022-09-23T20:53:31.301Z,12.98
2022-09-23T20:55:58.814Z,13.07
2022-09-23T20:58:30.185Z,13.14
2022-09-23T21:01:01.936Z,13.16
2022-09-23T21:03:32.090Z,13.21
2022-09-23T21:06:03.658Z,13.18
2022-09-23T21:08:31.465Z,13.17
2022-09-23T21:10:59.100Z,13.09
2022-09-23T21:13:26.045Z,13.03
2022-09-23T21:15:52.761Z,13.03
2022-09-23T21:18:22.499Z,12.94
2022-09-23T21:20:59.967Z,12.91
2022-09-23T21:23:32.747Z,12.98
2022-09-23T21:26:03.777Z,12.90
2022-09-23T21:28:32.312Z,12.90
2022-09-23T21:31:04.323Z,12.92
2022-09-23T21:33:31.260Z,12.87
2022-09-23T21:36:03.757Z,12.91
2022-09-23T21:38:31.440Z,12.88
2022-09-23T21:40:59.534Z,12.78
2022-09-23T21:43:33.650Z,12.78
2022-09-23T21:46:06.187Z,12.72
2022-09-23T21:48:37.503Z,12.62
2022-09-23T21:51:09.263Z,12.57
2022-09-23T21:53:39.871Z,12.57
2022-09-23T21:56:20.445Z,12.59
2022-09-23T21:58:47.888Z,12.58
2022-09-23T22:01:19.821Z,12.57
2022-09-23T22:03:52.007Z,12.59
2022-09-23T22:06:21.614Z,12.52
2022-09-23T22:08:54.871Z,12.46
2022-09-23T22:11:41.885Z,12.45
2022-09-23T22:14:11.006Z,12.43
2022-09-23T22:16:37.811Z,12.41
2022-09-23T22:19:07.969Z,12.44
2022-09-23T22:21:36.783Z,12.37
2022-09-23T22:24:04.960Z,12.41
2022-09-23T22:26:33.940Z,12.42
2022-09-23T22:29:19.460Z,12.27
2022-09-23T22:32:04.804Z,12.18
2022-09-23T22:34:48.969Z,12.10
2022-09-23T22:37:18.319Z,12.19
2022-09-23T22:39:45.317Z,12.28
2022-09-23T22:42:13.280Z,12.18
2022-09-23T22:44:40.100Z,12.05
2022-09-23T22:47:07.044Z,12.08
2022-09-23T22:49:34.057Z,12.03
2022-09-23T22:52:04.324Z,12.12
2022-09-23T22:54:34.021Z,12.07
2022-09-23T22:57:03.399Z,11.92
2022-09-23T22:59:30.286Z,12.00
2022-09-23T23:01:57.692Z,11.87
2022-09-23T23:04:24.749Z,11.91
2022-09-23T23:06:51.715Z,11.94
2022-09-23T23:09:19.326Z,11.87
2022-09-23T23:11:46.156Z,11.86
2022-09-23T23:14:15.377Z,11.75
2022-09-23T23:16:42.652Z,11.72
2022-09-23T23:19:13.366Z,11.65
2022-09-23T23:21:43.499Z,11.82
2022-09-23T23:24:20.039Z,11.81
2022-09-23T23:26:47.224Z,11.74
2022-09-23T23:29:15.479Z,11.37
2022-09-23T23:31:42.151Z,11.43
2022-09-23T23:34:12.542Z,11.47
2022-09-23T23:36:39.616Z,11.49
2022-09-23T23:39:07.759Z,11.36
2022-09-23T23:41:34.523Z,11.40
2022-09-23T23:44:01.759Z,11.37
2022-09-23T23:46:30.206Z,11.32
2022-09-23T23:48:57.796Z,11.15
2022-09-23T23:51:28.062Z,11.04
2022-09-23T23:53:55.210Z,10.86
2022-09-23T23:56:23.791Z,10.96
2022-09-23T23:58:57.300Z,11.01
